Bornholm — C4KF2 — position and weather

sailwx.info

Track history (hours):
 
Tides and Currents Weather Stations Pressure Air Temp Water Temp Dewpoint Dewpoint Depression Visibility Wind Speed Wind Dir Waves Ship Positions

Bornholm

Last reported at 2015-Jan-23 07:28 UTC. Time now 2015-Jan-26 04:28 UTC.
Position N 59°13' E 005°21'.

Length 118 m; draft 7.2 m.

Type: Cargo ship. MMSI: 212521000.

Date/timePositionNaut miles runAvg speedWind from/ knotsBaromVisibWave heightAir tempDewpointWater temp
2015-Jan-23 07:28N 59°13' E 005°21'1010.6
2015-Jan-23 06:33N 59°04' E 005°17'1111.1
2015-Jan-23 05:33N 58°54' E 005°08'43411.0
2015-Jan-21 14:13N 51°49' E 002°37'1414.3
2015-Jan-21 13:13N 51°38' E 002°23'1014.4
2015-Jan-21 12:33N 51°30' E 002°13'1414.4
2015-Jan-21 11:34N 51°19' E 001°58'1413.6
2015-Jan-21 10:34N 51°09' E 001°44'1312.5
2015-Jan-21 09:33N 50°59' E 001°31'  
2015-Jan-17 18:15N 39°13' W 009°51'811.1
2015-Jan-17 17:33N 39°06' W 009°51'1110.9
2015-Jan-17 16:30N 38°54' W 009°51'1011.0
2015-Jan-17 15:33N 38°44' W 009°51'1110.8
2015-Jan-17 14:33N 38°33' W 009°48'1110.9
2015-Jan-17 13:33N 38°23' W 009°45'1110.7
2015-Jan-17 12:31N 38°12' W 009°41'1010.7
2015-Jan-17 11:33N 38°02' W 009°38'1010.5
2015-Jan-17 10:33N 37°52' W 009°35'1110.6
2015-Jan-17 09:33N 37°41' W 009°32'1110.4
2015-Jan-17 08:30N 37°31' W 009°29'58 9.0
2015-Jan-17 02:07N 36°42' W 008°51'18010.3
2015-Jan-16 08:33N 36°02' W 005°12'  
2015-Jan-13 10:25N 37°11' W 000°58'1214.5
2015-Jan-13 09:33N 37°21' W 000°48'1414.3
2015-Jan-13 08:33N 37°32' W 000°36'1413.9
2015-Jan-13 07:33N 37°43' W 000°26'  
Track history (hours):
 
Tides and Currents Weather Stations Pressure Air Temp Water Temp Dewpoint Dewpoint Depression Visibility Wind Speed Wind Dir Waves Ship Positions

Bornholm

Last reported at 2015-Jan-23 07:28 UTC. Time now 2015-Jan-26 04:28 UTC.
Position N 59°13' E 005°21'.

Length 118 m; draft 7.2 m.

Type: Cargo ship. MMSI: 212521000.

Date/timePositionNaut miles runAvg speedWind from/ knotsBaromVisibWave heightAir tempDewpointWater temp
2015-Jan-23 07:28N 59°13' E 005°21'1010.6
2015-Jan-23 06:33N 59°04' E 005°17'1111.1
2015-Jan-23 05:33N 58°54' E 005°08'43411.0
2015-Jan-21 14:13N 51°49' E 002°37'1414.3
2015-Jan-21 13:13N 51°38' E 002°23'1014.4
2015-Jan-21 12:33N 51°30' E 002°13'1414.4
2015-Jan-21 11:34N 51°19' E 001°58'1413.6
2015-Jan-21 10:34N 51°09' E 001°44'1312.5
2015-Jan-21 09:33N 50°59' E 001°31'  
2015-Jan-17 18:15N 39°13' W 009°51'811.1
2015-Jan-17 17:33N 39°06' W 009°51'1110.9
2015-Jan-17 16:30N 38°54' W 009°51'1011.0
2015-Jan-17 15:33N 38°44' W 009°51'1110.8
2015-Jan-17 14:33N 38°33' W 009°48'1110.9
2015-Jan-17 13:33N 38°23' W 009°45'1110.7
2015-Jan-17 12:31N 38°12' W 009°41'1010.7
2015-Jan-17 11:33N 38°02' W 009°38'1010.5
2015-Jan-17 10:33N 37°52' W 009°35'1110.6
2015-Jan-17 09:33N 37°41' W 009°32'1110.4
2015-Jan-17 08:30N 37°31' W 009°29'58 9.0
2015-Jan-17 02:07N 36°42' W 008°51'18010.3
2015-Jan-16 08:33N 36°02' W 005°12'  
2015-Jan-13 10:25N 37°11' W 000°58'1214.5
2015-Jan-13 09:33N 37°21' W 000°48'1414.3
2015-Jan-13 08:33N 37°32' W 000°36'1413.9
2015-Jan-13 07:33N 37°43' W 000°26'  

Dump ship's entire track history